Northwoods, Missouri
Current Conditions -  °F | °C
As of 6:51 PM on Saturday 25 Oct 2014 (Local Time) from KSTL Reporting Station
Clear Clear  
Wind Chill: 70°   Ceiling: Unl
Heat Index: 70°   Visibility: 10mi
Dew Point: 54°   Wind: 0mph
Humidity: 57%   Direction: NA
Pressure: 30.02"   Gusts: NA
Location:  38.7055°N, 90.3021°W
Report Text: KSTL 252351Z 00000KT 10SM CLR 21/12 A3002 RMK AO2 SLP159 T02110122 10278 20206 53001
Loading
Personal Weather Stations






























Interactive Weather Map
Tropical Storm Tracking
New forecast layout! Learn more

10-Day Weather Forecast

Advertisements
Track Severe Weather on mobile